Time;durP1;ratioP1;P1;durP2;ratioP2;P2;SDS_P1;SDS_P2;PMS_P1;PMS_P2;Temp;Humidity;BMP_temperature;BMP_pressure;BME280_temperature;BME280_humidity;BME280_pressure;Samples;Min_cycle;Max_cycle;Signal;HPM_P1;HPM_P2
2022/01/15 00:00:37;;;;;;;16.47;15.67;;;2.40;80.10;;;;;;4996131;28;20043;-86
2022/01/15 00:03:04;;;;;;;14.60;13.90;;;2.40;80.10;;;;;;4984215;28;20022;-85
2022/01/15 00:05:31;;;;;;;18.17;16.40;;;2.30;80.00;;;;;;4976686;28;20039;-85
2022/01/15 00:08:00;;;;;;;16.20;15.40;;;2.30;80.10;;;;;;4989097;28;20034;-85
2022/01/15 00:10:27;;;;;;;15.20;14.50;;;2.30;80.20;;;;;;4983791;28;20526;-85
2022/01/15 00:12:59;;;;;;;16.47;15.60;;;2.30;80.10;;;;;;4982942;28;20050;-85
2022/01/15 00:15:39;;;;;;;17.13;16.10;;;2.30;80.10;;;;;;4985077;28;20031;-85
2022/01/15 00:18:11;;;;;;;16.87;15.40;;;2.40;80.30;;;;;;4973706;28;20058;-85
2022/01/15 00:20:37;;;;;;;17.70;16.50;;;2.40;80.30;;;;;;4964268;28;20043;-85
2022/01/15 00:23:03;;;;;;;16.87;15.97;;;2.40;80.10;;;;;;4973466;28;20050;-85
2022/01/15 00:25:30;;;;;;;15.93;15.13;;;2.50;80.20;;;;;;4969613;28;20039;-85
2022/01/15 00:27:57;;;;;;;16.03;15.23;;;2.50;80.10;;;;;;4973399;28;20047;-85
2022/01/15 00:30:23;;;;;;;17.27;16.37;;;2.50;80.00;;;;;;4973911;28;20043;-85
2022/01/15 00:32:51;;;;;;;16.30;15.27;;;2.60;80.00;;;;;;4979419;28;20039;-85
2022/01/15 00:35:18;;;;;;;16.53;15.70;;;2.60;80.00;;;;;;4977826;28;20042;-85
2022/01/15 00:37:45;;;;;;;15.43;14.67;;;2.60;80.00;;;;;;4985676;28;20379;-85
2022/01/15 00:40:14;;;;;;;15.50;14.70;;;2.60;79.90;;;;;;4983288;28;20507;-85
2022/01/15 00:42:40;;;;;;;17.27;16.00;;;2.60;79.80;;;;;;4982266;28;20057;-85
2022/01/15 00:45:10;;;;;;;18.17;16.77;;;2.60;79.80;;;;;;4990224;28;20046;-85
2022/01/15 00:47:36;;;;;;;16.10;15.30;;;2.50;80.00;;;;;;4977187;28;20047;-85
2022/01/15 00:50:03;;;;;;;19.73;18.20;;;2.50;80.00;;;;;;4964376;28;20034;-85
2022/01/15 00:52:29;;;;;;;16.67;15.77;;;2.40;80.10;;;;;;4981635;28;20392;-85
2022/01/15 00:54:55;;;;;;;16.97;16.17;;;2.40;80.10;;;;;;4983531;28;20037;-85
2022/01/15 00:57:22;;;;;;;17.43;16.43;;;2.50;80.20;;;;;;4979874;28;20272;-85
2022/01/15 00:59:48;;;;;;;15.93;15.10;;;2.50;80.20;;;;;;4992006;28;20030;-86
2022/01/15 01:02:14;;;;;;;17.73;16.50;;;2.50;80.00;;;;;;4977215;28;20042;-85
2022/01/15 01:04:40;;;;;;;19.47;17.80;;;2.50;79.90;;;;;;4979367;28;20038;-85
2022/01/15 01:07:06;;;;;;;16.83;15.93;;;2.40;80.10;;;;;;4970295;28;20026;-85
2022/01/15 01:12:28;;;;;;;16.77;15.87;;;2.50;80.20;;;;;;4980423;28;20041;-85
2022/01/15 01:20:50;;;;;;;15.33;14.63;;;2.50;80.80;;;;;;4990314;28;20053;-85
2022/01/15 01:23:10;;;;;;;17.67;16.53;;;2.60;80.10;;;;;;4977306;28;20058;-85
2022/01/15 01:25:48;;;;;;;18.90;17.33;;;2.60;80.00;;;;;;4980352;28;20027;-85
2022/01/15 01:28:24;;;;;;;17.13;16.23;;;2.60;80.00;;;;;;4985869;28;20513;-85
2022/01/15 01:30:57;;;;;;;18.37;17.37;;;2.60;79.90;;;;;;4981334;28;20030;-85
2022/01/15 01:36:08;;;;;;;14.20;13.57;;;2.60;80.00;;;;;;4976401;28;20027;-85
2022/01/15 01:38:40;;;;;;;16.30;15.40;;;2.50;79.90;;;;;;4956974;28;20034;-85
2022/01/15 01:41:07;;;;;;;18.77;17.60;;;2.50;80.00;;;;;;4971840;28;20046;-85
2022/01/15 01:46:14;;;;;;;17.03;16.10;;;2.40;80.10;;;;;;4973260;28;20043;-85
2022/01/15 01:48:41;;;;;;;18.73;17.73;;;2.40;80.10;;;;;;4972153;28;20054;-85
2022/01/15 01:51:07;;;;;;;17.67;16.73;;;2.40;81.00;;;;;;4967624;28;20031;-85
2022/01/15 01:53:38;;;;;;;17.40;16.50;;;2.40;80.20;;;;;;4971197;28;20522;-85
2022/01/15 01:56:04;;;;;;;17.13;16.25;;;2.50;80.20;;;;;;4972464;28;20494;-85
2022/01/15 01:58:30;;;;;;;17.33;16.33;;;2.40;80.10;;;;;;4971351;28;20504;-85
2022/01/15 02:00:56;;;;;;;16.53;15.73;;;2.40;80.00;;;;;;4971800;28;20058;-85
2022/01/15 02:03:22;;;;;;;18.10;16.87;;;2.30;80.10;;;;;;4955626;28;20047;-85
2022/01/15 02:05:48;;;;;;;16.53;15.73;;;2.30;80.20;;;;;;4973246;28;20034;-85
2022/01/15 02:08:15;;;;;;;18.70;17.40;;;2.20;80.20;;;;;;4972335;28;20053;-85
2022/01/15 02:10:42;;;;;;;15.07;14.30;;;2.20;80.30;;;;;;4956018;28;20476;-85
2022/01/15 02:13:10;;;;;;;17.90;16.90;;;2.20;80.50;;;;;;4968999;28;20063;-85
2022/01/15 02:15:36;;;;;;;16.00;15.20;;;2.20;80.50;;;;;;4971850;28;20050;-85
2022/01/15 02:18:02;;;;;;;15.90;15.10;;;2.20;80.40;;;;;;4972229;28;20035;-85
2022/01/15 02:25:55;;;;;;;17.10;15.80;;;2.10;80.20;;;;;;4977191;28;20038;-85
2022/01/15 02:28:35;;;;;;;15.10;14.33;;;2.00;80.30;;;;;;4971242;28;20046;-85
2022/01/15 02:31:06;;;;;;;16.30;15.37;;;2.00;80.40;;;;;;4970058;28;20031;-85
2022/01/15 02:33:32;;;;;;;15.75;14.85;;;2.00;80.40;;;;;;4967323;28;20530;-85
2022/01/15 02:35:59;;;;;;;16.20;15.40;;;2.00;80.60;;;;;;4970191;28;20063;-85
2022/01/15 02:38:25;;;;;;;18.60;17.10;;;2.00;80.50;;;;;;4972679;28;20395;-84
2022/01/15 02:40:51;;;;;;;18.20;17.13;;;2.10;80.50;;;;;;4971335;28;20047;-85
2022/01/15 02:43:20;;;;;;;15.00;14.30;;;2.10;80.40;;;;;;4970392;28;20035;-85
2022/01/15 02:45:55;;;;;;;16.97;15.83;;;2.10;80.40;;;;;;4968619;28;20038;-86
2022/01/15 02:48:23;;;;;;;17.87;16.63;;;2.20;80.30;;;;;;4984429;28;20475;-85
2022/01/15 02:50:49;;;;;;;15.73;15.03;;;2.10;80.10;;;;;;4961504;28;20041;-85
2022/01/15 02:53:18;;;;;;;15.73;15.00;;;2.10;80.30;;;;;;4980430;28;20502;-85
2022/01/15 02:55:46;;;;;;;16.10;15.07;;;2.10;81.10;;;;;;4976138;28;20027;-85
2022/01/15 02:58:13;;;;;;;15.17;14.47;;;2.00;80.20;;;;;;4968023;28;20051;-85
2022/01/15 03:00:39;;;;;;;16.63;15.77;;;2.00;80.20;;;;;;4984833;28;20395;-85
2022/01/15 03:03:05;;;;;;;15.63;14.87;;;1.90;80.30;;;;;;4966487;28;20036;-85
2022/01/15 03:05:31;;;;;;;16.40;15.60;;;1.90;80.30;;;;;;4963755;28;20031;-85
2022/01/15 03:07:57;;;;;;;15.60;14.90;;;1.90;80.40;;;;;;4960450;28;20039;-85
2022/01/15 03:10:23;;;;;;;16.70;15.90;;;1.90;80.40;;;;;;4994110;28;20046;-85
2022/01/15 03:12:49;;;;;;;17.37;16.20;;;1.90;80.30;;;;;;4961219;28;20039;-85
2022/01/15 03:15:19;;;;;;;17.63;16.37;;;1.90;80.50;;;;;;4960837;28;20039;-85
2022/01/15 03:17:46;;;;;;;16.03;15.20;;;1.90;80.50;;;;;;4984959;28;20046;-85
2022/01/15 03:20:13;;;;;;;16.60;15.80;;;1.90;80.50;;;;;;4975732;28;20047;-85
2022/01/15 03:22:39;;;;;;;16.57;15.47;;;1.90;80.30;;;;;;5002966;28;20049;-85
2022/01/15 03:25:06;;;;;;;16.60;15.80;;;2.00;80.50;;;;;;4988267;28;20046;-85
2022/01/15 03:27:32;;;;;;;16.93;16.00;;;2.00;80.40;;;;;;4990463;28;20042;-85
2022/01/15 03:29:58;;;;;;;21.20;18.33;;;2.00;80.40;;;;;;4989169;28;20026;-84
2022/01/15 03:32:24;;;;;;;16.33;15.50;;;2.00;80.40;;;;;;4991109;28;20057;-84
2022/01/15 03:34:50;;;;;;;16.93;16.00;;;2.00;80.40;;;;;;5007651;28;20030;-84
2022/01/15 03:37:16;;;;;;;16.20;14.97;;;2.00;80.40;;;;;;4984631;28;20073;-84
2022/01/15 03:39:43;;;;;;;16.27;15.37;;;1.90;80.30;;;;;;4988730;28;20045;-84
2022/01/15 03:42:12;;;;;;;17.33;16.33;;;1.90;80.30;;;;;;4986953;28;20408;-84
2022/01/15 03:44:46;;;;;;;16.77;15.87;;;1.90;80.30;;;;;;4980468;28;20038;-84
2022/01/15 03:47:12;;;;;;;15.83;15.03;;;1.80;80.20;;;;;;4977545;28;20030;-84
2022/01/15 03:49:38;;;;;;;14.90;14.20;;;1.80;80.50;;;;;;4978978;28;20038;-84
2022/01/15 03:52:05;;;;;;;17.70;16.67;;;1.80;80.50;;;;;;4985895;28;20050;-84
2022/01/15 03:54:31;;;;;;;16.00;15.30;;;1.80;80.50;;;;;;4988984;28;20042;-84
2022/01/15 03:56:57;;;;;;;18.57;16.70;;;1.90;80.60;;;;;;4992755;28;20030;-84
2022/01/15 03:59:24;;;;;;;15.93;15.23;;;1.90;80.40;;;;;;4976151;28;20037;-84
2022/01/15 04:01:50;;;;;;;17.20;16.30;;;2.00;80.40;;;;;;4978305;28;20399;-84
2022/01/15 04:04:17;;;;;;;17.40;16.37;;;2.00;80.40;;;;;;4987466;28;20050;-84
2022/01/15 04:06:43;;;;;;;16.17;15.37;;;2.00;80.40;;;;;;4984793;28;20058;-84
2022/01/15 04:09:09;;;;;;;16.50;15.50;;;2.00;80.30;;;;;;4979267;28;20050;-84
2022/01/15 04:11:35;;;;;;;16.67;15.77;;;2.10;80.30;;;;;;4979823;28;20041;-84
2022/01/15 04:14:02;;;;;;;16.07;15.37;;;2.10;80.20;;;;;;4991119;28;20038;-84
2022/01/15 04:16:29;;;;;;;16.97;16.10;;;2.10;80.20;;;;;;4985733;28;20050;-84
2022/01/15 04:18:56;;;;;;;16.27;15.53;;;2.00;80.20;;;;;;4985373;28;20030;-84
2022/01/15 04:21:23;;;;;;;17.53;16.53;;;2.10;80.40;;;;;;4988760;28;20254;-84
2022/01/15 04:23:49;;;;;;;16.27;15.47;;;2.10;80.30;;;;;;4980861;28;20592;-83
2022/01/15 04:26:15;;;;;;;16.53;15.73;;;2.00;80.20;;;;;;4977891;28;20041;-84
2022/01/15 04:28:41;;;;;;;16.37;15.57;;;2.00;80.30;;;;;;4980424;28;20042;-84
2022/01/15 04:31:08;;;;;;;16.53;15.73;;;1.90;80.30;;;;;;4984367;28;20042;-84
2022/01/15 04:33:36;;;;;;;16.53;15.63;;;1.90;80.50;;;;;;4989126;28;20054;-84
2022/01/15 04:36:03;;;;;;;18.60;17.10;;;1.90;80.30;;;;;;4988595;28;20050;-84
2022/01/15 04:38:31;;;;;;;19.70;18.30;;;1.90;80.30;;;;;;4985771;28;20034;-84
2022/01/15 04:40:57;;;;;;;17.30;16.40;;;1.90;80.50;;;;;;4989063;28;20033;-84
2022/01/15 04:43:23;;;;;;;16.30;15.50;;;1.90;80.50;;;;;;4982656;28;20054;-84
2022/01/15 04:45:49;;;;;;;17.17;16.07;;;2.00;80.50;;;;;;4981408;28;20490;-84
2022/01/15 04:48:15;;;;;;;16.90;16.03;;;2.00;80.40;;;;;;4988211;28;20038;-85
2022/01/15 04:50:41;;;;;;;16.80;16.00;;;2.00;80.40;;;;;;4978230;28;20030;-85
2022/01/15 04:53:09;;;;;;;20.03;18.27;;;2.10;80.40;;;;;;4977186;28;20034;-82
2022/01/15 04:55:35;;;;;;;17.43;16.43;;;2.10;80.40;;;;;;4981815;28;20018;-85
2022/01/15 04:58:02;;;;;;;17.20;16.30;;;2.10;80.30;;;;;;4987780;28;20042;-83
2022/01/15 05:00:28;;;;;;;17.37;16.37;;;2.10;80.30;;;;;;4983278;28;20045;-84
2022/01/15 05:02:56;;;;;;;17.60;16.60;;;2.10;80.30;;;;;;4989083;28;20490;-82
2022/01/15 05:05:23;;;;;;;18.03;16.97;;;2.00;80.20;;;;;;4970813;28;20045;-83
2022/01/15 05:07:52;;;;;;;18.00;17.00;;;2.10;80.40;;;;;;4970932;28;20041;-84
2022/01/15 05:10:20;;;;;;;19.50;17.83;;;2.00;80.40;;;;;;4988834;28;20041;-83
2022/01/15 05:12:48;;;;;;;17.13;15.87;;;2.00;80.30;;;;;;4982325;28;20037;-83
2022/01/15 05:15:16;;;;;;;16.90;15.80;;;2.00;80.40;;;;;;4965189;28;20042;-84
2022/01/15 05:17:42;;;;;;;16.50;15.50;;;1.90;80.30;;;;;;4974996;28;20033;-84
2022/01/15 05:20:09;;;;;;;16.13;15.30;;;1.90;80.30;;;;;;4993178;28;20037;-83
2022/01/15 05:22:35;;;;;;;14.90;14.20;;;1.80;80.30;;;;;;4988142;28;20054;-83
2022/01/15 05:25:03;;;;;;;15.57;14.87;;;1.80;80.40;;;;;;4980942;28;20034;-84
2022/01/15 05:27:29;;;;;;;17.43;16.27;;;1.80;80.50;;;;;;4985858;28;20395;-85
2022/01/15 05:29:55;;;;;;;18.50;17.43;;;1.80;80.50;;;;;;4980237;28;20034;-83
2022/01/15 05:32:23;;;;;;;16.17;15.17;;;1.80;80.50;;;;;;4990492;28;20387;-83
2022/01/15 05:34:50;;;;;;;17.93;16.60;;;1.70;80.40;;;;;;4978211;28;20034;-84
2022/01/15 05:37:16;;;;;;;16.27;15.53;;;1.70;80.40;;;;;;4981878;28;20479;-84
2022/01/15 05:39:42;;;;;;;17.00;15.97;;;1.80;81.40;;;;;;4984688;28;20379;-84
2022/01/15 05:42:09;;;;;;;19.70;17.73;;;1.80;80.60;;;;;;4989338;28;20037;-85
2022/01/15 05:44:35;;;;;;;16.17;15.37;;;1.80;80.50;;;;;;4976384;28;20485;-84
2022/01/15 05:47:01;;;;;;;16.83;16.03;;;1.80;80.60;;;;;;4977190;28;20039;-84
2022/01/15 05:49:29;;;;;;;16.73;15.80;;;1.80;80.50;;;;;;4986240;28;20033;-84
2022/01/15 05:51:55;;;;;;;17.70;16.70;;;1.80;80.40;;;;;;4992273;28;20034;-84
2022/01/15 05:54:21;;;;;;;16.83;15.83;;;1.70;80.40;;;;;;4991076;28;20051;-84
2022/01/15 05:56:47;;;;;;;17.27;16.47;;;1.80;80.50;;;;;;4992365;28;20030;-84
2022/01/15 05:59:13;;;;;;;16.10;15.30;;;1.80;80.50;;;;;;4991730;28;20045;-82
2022/01/15 06:01:39;;;;;;;16.20;15.27;;;1.70;81.30;;;;;;4990381;28;20030;-82
2022/01/15 06:04:05;;;;;;;16.63;15.80;;;1.70;80.60;;;;;;4986229;28;20030;-82
2022/01/15 06:06:32;;;;;;;17.30;16.10;;;1.80;80.70;;;;;;4992034;28;20043;-82
2022/01/15 06:08:58;;;;;;;17.10;16.13;;;1.80;80.70;;;;;;4989630;28;20030;-82
2022/01/15 06:11:24;;;;;;;17.40;16.50;;;1.80;80.50;;;;;;4989379;28;20073;-82
2022/01/15 06:13:50;;;;;;;16.03;15.23;;;1.80;80.40;;;;;;4981189;28;20483;-86
2022/01/15 06:16:17;;;;;;;16.10;15.30;;;1.90;81.60;;;;;;4990522;28;20047;-82
2022/01/15 06:18:43;;;;;;;17.77;16.57;;;2.00;80.60;;;;;;4990933;28;20050;-82
2022/01/15 06:21:09;;;;;;;16.73;15.73;;;2.10;80.40;;;;;;4989723;28;20034;-82
2022/01/15 06:23:35;;;;;;;15.47;14.73;;;2.10;80.20;;;;;;4991135;28;20042;-82
2022/01/15 06:26:01;;;;;;;16.33;15.43;;;2.10;80.20;;;;;;4983604;28;20035;-82
2022/01/15 06:28:27;;;;;;;17.13;15.97;;;2.00;80.20;;;;;;4979037;28;20053;-82
2022/01/15 06:30:53;;;;;;;17.73;16.83;;;1.90;81.00;;;;;;4988562;28;20989;-82
2022/01/15 06:33:19;;;;;;;16.47;15.67;;;1.80;80.20;;;;;;4988729;28;20049;-82
2022/01/15 06:35:46;;;;;;;17.63;16.17;;;1.80;80.50;;;;;;4992161;28;20034;-82
2022/01/15 06:38:12;;;;;;;17.87;16.73;;;1.80;80.50;;;;;;4991251;28;20398;-82
2022/01/15 06:40:38;;;;;;;17.23;16.23;;;1.70;80.40;;;;;;4978909;28;20039;-82
2022/01/15 06:43:05;;;;;;;18.73;17.30;;;1.70;80.60;;;;;;4988317;28;20501;-82
2022/01/15 06:45:32;;;;;;;16.63;15.83;;;1.60;80.50;;;;;;4991922;28;20042;-82
2022/01/15 06:47:58;;;;;;;16.23;15.43;;;1.60;80.70;;;;;;4991786;28;20214;-82
2022/01/15 06:50:25;;;;;;;15.97;14.90;;;1.70;80.80;;;;;;4991565;28;20057;-82
2022/01/15 06:52:51;;;;;;;16.17;15.37;;;1.70;80.80;;;;;;4974843;28;20099;-82
2022/01/15 06:55:17;;;;;;;18.10;16.27;;;1.80;80.80;;;;;;4972365;28;20038;-82
2022/01/15 06:57:43;;;;;;;16.03;15.13;;;1.80;80.70;;;;;;4994350;28;20046;-82
2022/01/15 07:00:10;;;;;;;14.50;13.80;;;1.80;80.60;;;;;;4993625;28;20038;-82
2022/01/15 07:02:37;;;;;;;17.07;16.13;;;1.90;80.70;;;;;;4992855;28;20033;-82
2022/01/15 07:05:04;;;;;;;16.23;15.43;;;1.90;80.40;;;;;;4980014;28;20039;-82
2022/01/15 07:07:30;;;;;;;17.27;16.00;;;1.90;80.50;;;;;;4992425;28;20039;-82
2022/01/15 07:09:56;;;;;;;17.00;16.13;;;1.90;80.50;;;;;;4994284;28;20030;-82
2022/01/15 07:12:22;;;;;;;17.43;15.90;;;2.00;80.70;;;;;;4995323;28;20057;-82
2022/01/15 07:14:48;;;;;;;15.77;14.97;;;2.10;80.60;;;;;;4994705;28;20034;-82
2022/01/15 07:17:17;;;;;;;15.60;14.87;;;2.20;80.50;;;;;;4994086;28;20049;-82
2022/01/15 07:19:43;;;;;;;15.60;14.83;;;2.20;80.30;;;;;;4989666;28;20078;-83
2022/01/15 07:22:09;;;;;;;16.43;15.60;;;2.20;80.20;;;;;;4989183;28;20054;-87
2022/01/15 07:24:35;;;;;;;15.77;14.97;;;2.20;80.30;;;;;;4977004;28;20580;-85
2022/01/15 07:27:02;;;;;;;18.73;17.43;;;2.20;80.30;;;;;;4983796;28;20041;-82
2022/01/15 07:29:30;;;;;;;16.83;16.00;;;2.20;80.40;;;;;;4989261;28;20391;-83
2022/01/15 07:31:56;;;;;;;17.30;16.23;;;2.20;80.40;;;;;;4992508;28;20052;-84
2022/01/15 07:34:22;;;;;;;16.40;15.57;;;2.20;80.50;;;;;;4993341;28;20053;-86
2022/01/15 07:36:53;;;;;;;15.57;14.67;;;2.20;80.40;;;;;;4997423;28;20053;-84
2022/01/15 07:39:20;;;;;;;16.77;15.88;;;2.20;80.40;;;;;;4990980;28;20029;-83
2022/01/15 07:41:46;;;;;;;18.97;17.37;;;2.30;80.50;;;;;;4986083;28;20054;-83
2022/01/15 07:44:12;;;;;;;16.10;15.30;;;2.30;80.50;;;;;;4992912;28;20054;-83
2022/01/15 07:46:38;;;;;;;16.80;15.90;;;2.30;80.50;;;;;;4987792;28;20526;-83
2022/01/15 07:49:04;;;;;;;16.67;15.73;;;2.30;80.50;;;;;;4988316;28;20737;-82
2022/01/15 07:51:30;;;;;;;17.10;15.97;;;2.30;80.40;;;;;;4977049;28;20041;-88
2022/01/15 07:53:56;;;;;;;16.03;15.23;;;2.40;80.40;;;;;;4994010;28;20371;-87
2022/01/15 07:56:22;;;;;;;15.50;14.80;;;2.40;80.40;;;;;;4992505;28;20042;-84
2022/01/15 07:58:48;;;;;;;17.43;16.13;;;2.40;80.40;;;;;;4990449;28;20483;-83
2022/01/15 08:01:16;;;;;;;15.70;14.80;;;2.40;80.40;;;;;;4982888;28;20038;-84
2022/01/15 08:03:42;;;;;;;17.80;16.37;;;2.40;80.40;;;;;;4971046;28;20041;-85
2022/01/15 08:06:09;;;;;;;16.63;15.83;;;2.40;80.30;;;;;;4992591;28;20034;-84
2022/01/15 08:08:35;;;;;;;17.27;16.00;;;2.40;80.40;;;;;;4994281;28;20042;-83
2022/01/15 08:11:02;;;;;;;15.90;15.10;;;2.40;80.30;;;;;;4995060;28;20034;-86
2022/01/15 08:13:31;;;;;;;17.03;15.87;;;2.50;80.40;;;;;;4993320;28;20046;-86
2022/01/15 08:15:58;;;;;;;15.57;14.67;;;2.50;80.40;;;;;;4976465;28;20506;-85
2022/01/15 08:18:26;;;;;;;19.03;17.70;;;2.50;80.30;;;;;;4986302;28;20030;-85
2022/01/15 08:20:52;;;;;;;17.27;16.27;;;2.40;80.20;;;;;;4991892;28;20042;-86
2022/01/15 08:23:18;;;;;;;17.97;16.87;;;2.40;80.30;;;;;;4993419;28;20404;-84
2022/01/15 08:25:44;;;;;;;17.90;16.80;;;2.30;80.20;;;;;;4999088;28;20041;-83
2022/01/15 08:28:10;;;;;;;15.77;14.97;;;2.30;80.30;;;;;;4989653;28;20376;-85
2022/01/15 08:30:36;;;;;;;16.73;15.83;;;2.20;80.40;;;;;;4985395;28;20046;-84
2022/01/15 08:33:02;;;;;;;16.30;15.40;;;2.10;80.40;;;;;;4993427;28;20037;-86
2022/01/15 08:35:28;;;;;;;17.13;16.23;;;2.00;80.40;;;;;;4984548;28;20380;-84
2022/01/15 08:37:54;;;;;;;18.90;17.43;;;2.00;80.50;;;;;;4991343;28;20026;-84
2022/01/15 08:40:21;;;;;;;17.03;15.97;;;2.00;80.60;;;;;;5002422;28;20046;-84
2022/01/15 08:42:47;;;;;;;16.07;15.17;;;1.90;80.70;;;;;;4992434;28;20493;-85
2022/01/15 08:45:14;;;;;;;16.90;16.03;;;2.00;80.80;;;;;;4979900;28;20043;-84
2022/01/15 08:47:41;;;;;;;15.63;14.93;;;2.00;80.70;;;;;;4988195;28;20403;-85
2022/01/15 08:50:08;;;;;;;15.13;14.43;;;2.00;80.60;;;;;;4986852;28;20029;-86
2022/01/15 08:52:34;;;;;;;17.93;16.90;;;2.00;80.60;;;;;;4963751;28;20047;-86
2022/01/15 08:55:01;;;;;;;16.20;15.13;;;2.00;80.60;;;;;;4987921;28;20503;-85
2022/01/15 08:57:27;;;;;;;18.37;17.07;;;2.00;80.60;;;;;;4986552;28;20039;-84
2022/01/15 08:59:54;;;;;;;17.50;16.30;;;2.10;81.40;;;;;;4977443;28;20034;-83
2022/01/15 09:02:20;;;;;;;16.63;15.83;;;2.10;80.60;;;;;;4983850;28;20034;-85
2022/01/15 09:04:46;;;;;;;15.20;14.50;;;2.20;80.60;;;;;;4988922;28;20030;-88
2022/01/15 09:07:12;;;;;;;17.20;16.20;;;2.20;80.50;;;;;;4986053;28;20061;-82
2022/01/15 09:09:39;;;;;;;17.07;16.10;;;2.30;80.60;;;;;;4991721;28;20506;-83
2022/01/15 09:12:06;;;;;;;16.73;15.67;;;2.30;80.60;;;;;;4991938;28;20034;-83
2022/01/15 09:14:32;;;;;;;17.03;16.13;;;2.30;80.40;;;;;;4977806;28;20506;-82
2022/01/15 09:16:58;;;;;;;17.77;16.80;;;2.40;80.40;;;;;;4993033;28;20046;-82
2022/01/15 09:19:24;;;;;;;16.03;15.23;;;2.30;80.40;;;;;;4988972;28;20045;-85
2022/01/15 09:21:50;;;;;;;16.47;15.57;;;2.40;80.40;;;;;;4987736;28;20057;-86
2022/01/15 09:24:16;;;;;;;16.27;15.47;;;2.40;80.40;;;;;;4984352;28;20042;-85
2022/01/15 09:32:00;;;;;;;17.20;16.20;;;2.50;80.40;;;;;;4982266;28;20037;-85
2022/01/15 09:34:26;;;;;;;16.47;15.47;;;2.50;80.40;;;;;;4984438;28;20401;-85
2022/01/15 09:36:52;;;;;;;17.17;16.17;;;2.50;80.40;;;;;;4984013;28;20042;-84
2022/01/15 09:39:19;;;;;;;18.87;17.53;;;2.50;80.40;;;;;;4988297;28;20046;-84
2022/01/15 09:41:47;;;;;;;17.13;16.23;;;2.50;80.50;;;;;;4983588;28;20121;-84
2022/01/15 09:44:14;;;;;;;16.17;15.37;;;2.50;80.40;;;;;;4990190;28;20046;-84
2022/01/15 09:46:40;;;;;;;17.00;15.67;;;2.50;80.30;;;;;;4959198;28;20045;-83
2022/01/15 09:49:07;;;;;;;17.20;16.20;;;2.50;80.40;;;;;;4983730;28;20501;-81
2022/01/15 09:51:33;;;;;;;16.17;15.33;;;2.50;80.40;;;;;;4987123;28;20032;-82
2022/01/15 09:54:00;;;;;;;14.87;14.17;;;2.50;80.40;;;;;;4992559;28;20038;-81
2022/01/15 09:56:26;;;;;;;17.10;16.07;;;2.60;80.50;;;;;;4976848;28;20030;-82
2022/01/15 09:58:54;;;;;;;16.13;15.33;;;2.60;80.40;;;;;;4986470;28;20042;-79
2022/01/15 10:01:20;;;;;;;16.67;15.57;;;2.70;80.40;;;;;;4983350;28;20057;-80
2022/01/15 10:03:46;;;;;;;17.53;16.43;;;2.70;80.30;;;;;;4977926;28;20041;-80
2022/01/15 10:06:12;;;;;;;18.23;16.73;;;2.70;80.30;;;;;;4991115;28;20491;-83
2022/01/15 10:08:38;;;;;;;16.37;15.47;;;2.70;80.30;;;;;;4978159;28;20049;-81
2022/01/15 10:11:11;;;;;;;15.73;15.03;;;2.70;80.20;;;;;;4991293;28;20034;-80
2022/01/15 10:13:44;;;;;;;15.77;14.97;;;2.80;80.20;;;;;;4983436;28;20059;-82
2022/01/15 10:16:12;;;;;;;16.90;15.90;;;2.80;80.20;;;;;;4990454;28;20038;-81
2022/01/15 10:18:45;;;;;;;16.37;15.47;;;2.80;80.20;;;;;;4993739;28;20037;-82
2022/01/15 10:21:12;;;;;;;17.33;16.33;;;2.80;80.10;;;;;;4994416;28;20023;-80
2022/01/15 10:23:49;;;;;;;16.77;15.97;;;2.80;80.00;;;;;;4992059;28;20046;-82
2022/01/15 10:26:15;;;;;;;18.60;17.23;;;2.80;80.00;;;;;;4986338;28;20042;-81
2022/01/15 10:29:11;;;;;;;16.50;15.70;;;2.70;80.00;;;;;;4985396;28;20031;-80
2022/01/15 10:31:43;;;;;;;16.53;15.73;;;2.60;80.20;;;;;;4993524;28;20058;-80
2022/01/15 10:34:29;;;;;;;16.57;15.77;;;2.60;80.30;;;;;;4983416;28;20495;-82
2022/01/15 10:37:05;;;;;;;17.20;16.40;;;2.60;80.30;;;;;;4991181;28;20034;-83
2022/01/15 10:39:31;;;;;;;17.10;15.87;;;2.50;80.20;;;;;;4991285;28;20027;-82
2022/01/15 10:41:57;;;;;;;16.27;15.27;;;2.50;80.30;;;;;;4991203;28;20056;-82
2022/01/15 10:44:30;;;;;;;17.03;15.90;;;2.60;80.30;;;;;;4993779;28;20038;-84
2022/01/15 10:47:07;;;;;;;16.90;15.90;;;2.60;80.30;;;;;;4978355;28;20411;-83
2022/01/15 10:49:33;;;;;;;16.03;15.33;;;2.50;80.10;;;;;;4983354;28;20047;-80
2022/01/15 10:52:10;;;;;;;17.87;16.77;;;2.50;80.10;;;;;;4979295;28;20083;-81
2022/01/15 10:55:02;;;;;;;18.23;16.73;;;2.50;80.30;;;;;;4989153;28;20031;-80
2022/01/15 10:57:36;;;;;;;15.60;14.80;;;2.60;80.30;;;;;;5006616;28;20027;-82
2022/01/15 11:00:24;;;;;;;17.07;16.03;;;2.70;80.30;;;;;;4980223;28;20042;-81
2022/01/15 11:03:00;;;;;;;16.07;15.27;;;2.80;80.20;;;;;;4995024;28;20037;-83
2022/01/15 11:05:28;;;;;;;17.37;16.53;;;2.80;80.10;;;;;;4993982;28;20030;-84
2022/01/15 11:08:03;;;;;;;16.03;15.33;;;2.80;79.70;;;;;;4991704;28;20038;-83
2022/01/15 11:10:39;;;;;;;16.47;15.70;;;2.80;79.80;;;;;;4990188;28;20395;-84
2022/01/15 11:13:10;;;;;;;19.50;18.30;;;2.90;79.90;;;;;;4989698;28;20482;-83
2022/01/15 11:15:37;;;;;;;15.60;14.88;;;2.80;79.70;;;;;;4990560;28;20102;-83
2022/01/15 11:18:04;;;;;;;16.63;15.83;;;2.80;79.70;;;;;;4982221;28;20057;-82
2022/01/15 11:20:31;;;;;;;16.93;15.93;;;2.80;79.80;;;;;;4987604;28;20026;-82
2022/01/15 11:23:01;;;;;;;17.50;16.60;;;2.70;79.90;;;;;;4990258;28;20050;-84
2022/01/15 11:25:28;;;;;;;17.57;15.87;;;2.70;79.90;;;;;;4985903;28;20478;-83
2022/01/15 11:27:55;;;;;;;15.53;14.83;;;2.70;79.90;;;;;;4984485;28;20483;-83
2022/01/15 11:30:21;;;;;;;17.27;16.37;;;2.60;79.80;;;;;;4988056;28;20047;-82
2022/01/15 11:32:48;;;;;;;15.97;15.27;;;2.60;79.90;;;;;;4991281;28;20027;-79
2022/01/15 11:35:14;;;;;;;18.13;16.67;;;2.50;80.00;;;;;;4991726;28;20045;-82
2022/01/15 11:37:49;;;;;;;16.73;15.93;;;2.50;80.10;;;;;;4990228;28;20022;-80
2022/01/15 11:40:40;;;;;;;17.47;16.37;;;2.50;80.20;;;;;;4988799;28;20045;-79
2022/01/15 11:43:24;;;;;;;16.48;15.65;;;2.50;80.20;;;;;;4989329;28;20050;-79
2022/01/15 11:45:55;;;;;;;16.00;15.30;;;2.60;80.20;;;;;;4988902;28;20041;-80
2022/01/15 11:48:26;;;;;;;16.75;15.88;;;2.60;80.10;;;;;;4986241;28;20046;-82
2022/01/15 11:51:14;;;;;;;16.45;15.65;;;2.60;80.00;;;;;;4989307;28;20038;-79
2022/01/15 11:53:59;;;;;;;17.90;17.00;;;2.70;80.00;;;;;;4980665;28;20383;-81
2022/01/15 11:56:26;;;;;;;14.97;14.27;;;2.70;79.80;;;;;;4993740;28;20054;-79
2022/01/15 11:58:55;;;;;;;15.37;14.67;;;2.70;79.70;;;;;;4994668;28;20034;-79
2022/01/15 12:01:43;;;;;;;17.63;16.63;;;2.70;79.70;;;;;;4983154;28;20054;-80
2022/01/15 12:04:35;;;;;;;18.07;16.60;;;2.80;79.90;;;;;;4982346;28;20038;-80
2022/01/15 12:07:09;;;;;;;17.60;16.60;;;2.80;79.90;;;;;;4972615;28;20035;-80
2022/01/15 12:09:48;;;;;;;15.40;14.60;;;2.90;79.90;;;;;;4984498;28;20050;-82
2022/01/15 12:12:21;;;;;;;17.60;16.70;;;3.00;79.80;;;;;;4990451;28;20439;-79
2022/01/15 12:14:54;;;;;;;16.70;15.87;;;3.00;79.70;;;;;;4994280;28;20049;-81
2022/01/15 12:17:28;;;;;;;17.53;16.43;;;3.10;79.70;;;;;;4993553;28;20038;-81
2022/01/15 12:19:55;;;;;;;17.63;16.43;;;3.10;79.70;;;;;;4972803;28;20471;-81
2022/01/15 12:22:40;;;;;;;17.80;16.80;;;3.20;79.60;;;;;;4984792;28;20600;-81
2022/01/15 12:25:07;;;;;;;17.43;16.23;;;3.20;79.60;;;;;;4986086;28;20057;-80
2022/01/15 12:27:34;;;;;;;17.37;16.30;;;3.20;79.60;;;;;;4980355;28;20042;-81
2022/01/15 12:30:10;;;;;;;15.80;15.10;;;3.20;79.70;;;;;;4981543;28;20038;-81
2022/01/15 12:32:42;;;;;;;18.07;17.07;;;3.20;79.70;;;;;;4990964;28;20034;-82
2022/01/15 12:35:16;;;;;;;18.13;17.13;;;3.20;79.60;;;;;;4989482;28;20054;-86
2022/01/15 12:37:51;;;;;;;17.93;17.03;;;3.20;79.50;;;;;;4978719;28;20431;-82
2022/01/15 12:40:17;;;;;;;18.70;17.53;;;3.20;79.60;;;;;;4986492;28;20053;-82
2022/01/15 12:42:43;;;;;;;16.53;15.67;;;3.10;79.70;;;;;;4986060;28;20038;-82
2022/01/15 12:45:15;;;;;;;17.07;16.17;;;3.10;79.70;;;;;;4976907;28;20635;-82
2022/01/15 12:47:43;;;;;;;18.30;17.13;;;3.00;79.60;;;;;;4991313;28;20026;-82
2022/01/15 12:50:09;;;;;;;16.63;15.57;;;3.00;79.80;;;;;;4971183;28;20648;-82
2022/01/15 12:52:35;;;;;;;17.43;16.23;;;2.90;79.90;;;;;;4987767;28;20049;-82
2022/01/15 12:55:01;;;;;;;15.00;14.30;;;3.00;79.90;;;;;;4986799;28;20053;-82
2022/01/15 12:57:51;;;;;;;16.60;15.80;;;3.00;79.90;;;;;;4988480;28;20022;-82
2022/01/15 13:00:20;;;;;;;16.93;15.93;;;3.00;79.80;;;;;;4987841;28;20027;-82
2022/01/15 13:02:46;;;;;;;16.73;15.93;;;2.90;79.80;;;;;;4992142;28;20041;-82
2022/01/15 13:05:13;;;;;;;15.87;15.10;;;2.90;80.00;;;;;;4977384;28;20042;-82